createdAt,value
2023-05-24T00:00:00.303Z,12.10
2023-05-24T00:02:27.524Z,12.00
2023-05-24T00:04:54.852Z,12.10
2023-05-24T00:07:22.108Z,12.00
2023-05-24T00:09:52.294Z,12.00
2023-05-24T00:12:19.569Z,12.00
2023-05-24T00:14:46.821Z,11.90
2023-05-24T00:17:14.209Z,11.90
2023-05-24T00:19:41.381Z,11.90
2023-05-24T00:22:08.609Z,11.80
2023-05-24T00:24:35.888Z,11.80
2023-05-24T00:27:03.086Z,11.80
2023-05-24T00:29:32.187Z,11.80
2023-05-24T00:31:59.761Z,11.70
2023-05-24T00:35:08.693Z,11.70
2023-05-24T00:37:37.470Z,11.70
2023-05-24T00:40:05.226Z,11.60
2023-05-24T00:42:32.399Z,11.60
2023-05-24T00:44:59.624Z,11.60
2023-05-24T00:47:27.085Z,11.50
2023-05-24T00:49:54.563Z,11.50
2023-05-24T00:52:22.336Z,11.50
2023-05-24T00:54:49.887Z,11.50
2023-05-24T00:57:18.996Z,11.40
2023-05-24T00:59:46.631Z,11.40
2023-05-24T01:02:14.146Z,11.40
2023-05-24T01:04:41.394Z,11.40
2023-05-24T01:07:46.149Z,11.40
2023-05-24T01:10:37.234Z,11.30
2023-05-24T01:18:29.842Z,11.30
2023-05-24T01:21:50.390Z,11.30
2023-05-24T01:24:53.853Z,11.30
2023-05-24T01:27:23.837Z,11.20
2023-05-24T01:29:53.679Z,11.20
2023-05-24T01:32:21.638Z,11.20
2023-05-24T01:34:49.002Z,11.10
2023-05-24T01:37:16.385Z,11.10
2023-05-24T01:39:43.832Z,11.10
2023-05-24T01:42:48.077Z,11.10
2023-05-24T01:45:35.657Z,11.00
2023-05-24T01:48:19.556Z,11.00
2023-05-24T01:50:53.864Z,11.00
2023-05-24T01:53:26.411Z,10.90
2023-05-24T01:56:01.086Z,10.90
2023-05-24T01:58:31.385Z,10.80
2023-05-24T02:00:58.905Z,10.80
2023-05-24T02:03:26.357Z,10.80
2023-05-24T02:05:53.698Z,10.70
2023-05-24T02:08:21.410Z,10.70
2023-05-24T02:10:48.658Z,10.60
2023-05-24T02:13:18.270Z,10.60
2023-05-24T02:15:45.825Z,10.60
2023-05-24T02:18:13.225Z,10.50
2023-05-24T02:20:41.106Z,10.50
2023-05-24T02:23:08.604Z,10.50
2023-05-24T02:25:36.925Z,10.40
2023-05-24T02:28:04.395Z,10.40
2023-05-24T02:30:31.659Z,10.40
2023-05-24T02:32:59.007Z,10.30
2023-05-24T02:35:26.283Z,10.30
2023-05-24T02:37:53.461Z,10.20
2023-05-24T02:40:20.714Z,10.20
2023-05-24T02:42:48.038Z,10.20
2023-05-24T02:45:15.376Z,10.10
2023-05-24T02:47:42.709Z,10.10
2023-05-24T02:50:10.674Z,10.00
2023-05-24T02:52:38.059Z,10.00
2023-05-24T02:55:06.907Z,9.90
2023-05-24T02:57:38.076Z,9.90
2023-05-24T03:00:11.218Z,9.90
2023-05-24T03:02:38.833Z,9.80
2023-05-24T03:05:07.171Z,9.80
2023-05-24T03:07:34.472Z,9.80
2023-05-24T03:10:01.693Z,9.70
2023-05-24T03:12:28.997Z,9.70
2023-05-24T03:14:56.164Z,9.70
2023-05-24T03:17:23.471Z,9.70
2023-05-24T03:19:52.575Z,9.60
2023-05-24T03:22:20.378Z,9.60
2023-05-24T03:24:47.558Z,9.60
2023-05-24T03:27:14.932Z,9.60
2023-05-24T03:29:42.119Z,9.50
2023-05-24T03:32:09.326Z,9.50
2023-05-24T03:34:36.612Z,9.50
2023-05-24T03:37:03.932Z,9.50
2023-05-24T03:39:31.652Z,9.50
2023-05-24T03:41:58.960Z,9.40
2023-05-24T03:44:27.030Z,9.40
2023-05-24T03:46:54.751Z,9.40
2023-05-24T03:49:22.099Z,9.40
2023-05-24T03:51:49.239Z,9.40
2023-05-24T03:54:18.140Z,9.40
2023-05-24T03:56:45.858Z,9.40
2023-05-24T03:59:13.121Z,9.30
2023-05-24T04:01:40.810Z,9.30
2023-05-24T04:04:08.150Z,9.30
2023-05-24T04:06:37.044Z,9.30
2023-05-24T04:09:07.572Z,9.30
2023-05-24T04:11:34.945Z,9.40
2023-05-24T04:14:03.920Z,9.30
2023-05-24T04:16:34.454Z,9.40
2023-05-24T04:19:04.309Z,9.40
2023-05-24T04:21:33.550Z,9.40
2023-05-24T04:24:01.846Z,9.40
2023-05-24T04:26:30.077Z,9.40
2023-05-24T04:28:58.444Z,9.50
2023-05-24T04:31:26.509Z,9.50
2023-05-24T04:33:53.824Z,9.50
2023-05-24T04:36:23.537Z,9.60
2023-05-24T04:38:53.865Z,9.60
2023-05-24T04:41:22.672Z,9.60
2023-05-24T04:43:50.656Z,9.70
2023-05-24T04:46:17.966Z,9.70
2023-05-24T04:48:45.206Z,9.70
2023-05-24T04:51:12.968Z,9.80
2023-05-24T04:53:40.234Z,9.80
2023-05-24T04:56:07.653Z,9.90
2023-05-24T04:58:36.263Z,9.90
2023-05-24T05:01:07.949Z,10.00
2023-05-24T05:03:35.197Z,10.10
2023-05-24T05:06:02.772Z,10.10
2023-05-24T05:08:31.367Z,10.20
2023-05-24T05:10:58.985Z,10.30
2023-05-24T05:13:26.227Z,10.30
2023-05-24T05:15:53.984Z,10.40
2023-05-24T05:18:21.393Z,10.50
2023-05-24T05:20:48.603Z,10.50
2023-05-24T05:23:16.122Z,10.60
2023-05-24T05:25:43.405Z,10.70
2023-05-24T05:28:10.715Z,10.80
2023-05-24T05:30:37.851Z,10.90
2023-05-24T05:33:06.315Z,11.00
2023-05-24T05:35:33.609Z,11.20
2023-05-24T05:38:00.799Z,11.30
2023-05-24T05:40:27.957Z,11.50
2023-05-24T05:42:55.151Z,11.70
2023-05-24T05:45:36.109Z,11.80
2023-05-24T05:48:03.393Z,12.00
2023-05-24T05:50:30.641Z,12.20
2023-05-24T05:52:58.243Z,12.50
2023-05-24T05:55:30.429Z,12.70
2023-05-24T05:57:57.692Z,12.90
2023-05-24T06:00:25.054Z,13.00
2023-05-24T06:02:52.423Z,13.30
2023-05-24T06:05:20.183Z,13.40
2023-05-24T06:07:47.813Z,13.60
2023-05-24T06:10:15.112Z,13.80
2023-05-24T06:12:42.406Z,14.00
2023-05-24T06:15:10.281Z,14.20
2023-05-24T06:17:37.928Z,14.30
2023-05-24T06:20:15.935Z,14.50
2023-05-24T06:23:58.953Z,14.60
2023-05-24T06:26:27.252Z,14.80
2023-05-24T06:28:55.222Z,15.00
2023-05-24T06:31:22.769Z,15.20
2023-05-24T06:34:02.465Z,15.40
2023-05-24T06:36:34.354Z,15.50
2023-05-24T06:39:05.069Z,15.70
2023-05-24T06:41:39.469Z,15.90
2023-05-24T06:44:07.025Z,16.00
2023-05-24T06:46:35.225Z,16.20
2023-05-24T06:49:03.744Z,16.30
2023-05-24T06:51:33.994Z,16.40
2023-05-24T06:54:22.173Z,16.50
2023-05-24T06:56:49.458Z,16.50
2023-05-24T06:59:16.844Z,16.60
2023-05-24T07:01:44.358Z,16.60
2023-05-24T07:04:11.566Z,16.70
2023-05-24T07:06:39.674Z,16.70
2023-05-24T07:09:07.105Z,16.80
2023-05-24T07:11:34.944Z,16.80
2023-05-24T07:14:02.539Z,16.80
2023-05-24T07:16:33.190Z,16.90
2023-05-24T07:19:03.150Z,16.90
2023-05-24T07:21:34.900Z,17.10
2023-05-24T07:24:04.160Z,17.30
2023-05-24T07:26:31.881Z,17.60
2023-05-24T07:28:59.015Z,18.00
2023-05-24T07:31:27.651Z,18.40
2023-05-24T07:33:54.898Z,18.80
2023-05-24T07:36:22.255Z,19.10
2023-05-24T07:38:49.499Z,19.30
2023-05-24T07:41:17.299Z,19.30
2023-05-24T07:43:47.179Z,19.40
2023-05-24T07:46:14.500Z,19.40
2023-05-24T07:48:41.673Z,19.50
2023-05-24T07:51:08.962Z,19.50
2023-05-24T07:53:37.888Z,19.60
2023-05-24T07:56:05.673Z,19.70
2023-05-24T07:58:33.038Z,19.80
2023-05-24T08:01:19.358Z,19.80
2023-05-24T08:03:47.557Z,19.70
2023-05-24T08:06:14.831Z,19.50
2023-05-24T08:08:42.173Z,19.40
2023-05-24T08:11:09.462Z,19.20
2023-05-24T08:13:36.706Z,19.00
2023-05-24T08:16:04.154Z,18.80
2023-05-24T08:18:31.462Z,18.70
2023-05-24T08:20:59.023Z,18.60
2023-05-24T08:28:48.893Z,18.40
2023-05-24T08:31:16.496Z,18.30
2023-05-24T08:33:44.315Z,18.30
2023-05-24T08:36:11.633Z,18.20
2023-05-24T08:38:39.005Z,18.20
2023-05-24T08:41:09.624Z,18.20
2023-05-24T08:43:38.860Z,18.20
2023-05-24T08:46:07.971Z,18.20
2023-05-24T08:48:47.184Z,18.20
2023-05-24T08:51:18.261Z,18.10
2023-05-24T08:53:49.218Z,18.10
2023-05-24T08:56:19.827Z,18.10
2023-05-24T08:58:47.604Z,18.10
2023-05-24T09:01:18.034Z,18.10
2023-05-24T09:03:48.358Z,18.20
2023-05-24T09:06:19.498Z,18.20
2023-05-24T09:08:47.512Z,18.30
2023-05-24T09:11:17.222Z,18.40
2023-05-24T09:13:46.493Z,18.50
2023-05-24T09:16:15.420Z,18.60
2023-05-24T09:18:43.168Z,18.60
2023-05-24T09:21:12.488Z,18.60
2023-05-24T09:23:41.720Z,18.80
2023-05-24T09:26:10.625Z,18.90
2023-05-24T09:28:39.062Z,19.10
2023-05-24T09:31:08.090Z,19.20
2023-05-24T09:33:36.405Z,19.30
2023-05-24T09:36:07.157Z,19.30
2023-05-24T09:38:36.758Z,19.30
2023-05-24T09:41:07.560Z,19.30
2023-05-24T09:43:48.554Z,19.30
2023-05-24T09:46:22.586Z,19.40
2023-05-24T09:49:03.694Z,19.50
2023-05-24T09:51:31.307Z,19.70
2023-05-24T09:54:02.085Z,19.90
2023-05-24T09:56:31.370Z,20.00
2023-05-24T09:58:59.011Z,20.20
2023-05-24T10:01:28.371Z,20.30
2023-05-24T10:04:09.873Z,20.50
2023-05-24T10:06:38.696Z,20.80
2023-05-24T10:09:08.117Z,21.10
2023-05-24T10:11:37.671Z,21.30
2023-05-24T10:14:10.939Z,21.40
2023-05-24T10:16:38.576Z,21.40
2023-05-24T10:19:07.212Z,21.40
2023-05-24T10:21:42.018Z,21.20
2023-05-24T10:24:11.424Z,21.10
2023-05-24T10:26:42.650Z,21.00
2023-05-24T10:29:45.440Z,20.80
2023-05-24T10:32:17.445Z,20.70
2023-05-24T10:34:47.134Z,20.50
2023-05-24T10:37:15.080Z,20.40
2023-05-24T10:39:43.050Z,20.30
2023-05-24T10:42:10.523Z,20.30
2023-05-24T10:44:37.819Z,20.30
2023-05-24T10:47:15.882Z,20.40
2023-05-24T10:49:53.674Z,20.40
2023-05-24T10:52:21.272Z,20.40
2023-05-24T10:55:10.421Z,20.40
2023-05-24T10:57:40.266Z,20.40
2023-05-24T11:00:34.560Z,20.40
2023-05-24T11:03:09.389Z,20.40
2023-05-24T11:05:51.172Z,20.50
2023-05-24T11:08:26.397Z,20.60
2023-05-24T11:11:24.363Z,20.60
2023-05-24T11:13:58.159Z,20.70
2023-05-24T11:16:40.373Z,20.90
2023-05-24T11:19:29.787Z,20.90
2023-05-24T11:22:00.722Z,20.90
2023-05-24T11:24:29.323Z,20.80
2023-05-24T11:26:58.358Z,20.80
2023-05-24T11:29:25.801Z,20.80
2023-05-24T11:32:04.744Z,20.90
2023-05-24T11:34:33.635Z,21.00
2023-05-24T11:37:03.254Z,21.30
2023-05-24T11:39:36.837Z,21.50
2023-05-24T11:42:08.936Z,21.70
2023-05-24T11:44:40.184Z,21.90
2023-05-24T11:47:08.997Z,22.10
2023-05-24T11:49:36.903Z,22.20
2023-05-24T11:52:04.930Z,22.10
2023-05-24T11:54:54.731Z,22.10
2023-05-24T11:57:41.417Z,22.00
2023-05-24T12:00:11.730Z,21.90
2023-05-24T12:02:40.479Z,21.80
2023-05-24T12:05:14.408Z,21.70
2023-05-24T12:07:41.866Z,21.70
2023-05-24T12:10:10.895Z,21.80
2023-05-24T12:12:46.233Z,21.70
2023-05-24T12:15:15.058Z,21.80
2023-05-24T12:17:43.171Z,21.80
2023-05-24T12:20:15.267Z,21.90
2023-05-24T12:22:53.905Z,22.00
2023-05-24T12:25:23.939Z,22.20
2023-05-24T12:27:56.783Z,22.40
2023-05-24T12:30:26.221Z,22.70
2023-05-24T12:32:56.621Z,22.90
2023-05-24T12:35:24.964Z,23.20
2023-05-24T12:38:00.327Z,23.20
2023-05-24T12:40:27.932Z,23.20
2023-05-24T12:42:57.493Z,23.20
2023-05-24T12:45:26.938Z,23.10
2023-05-24T12:47:56.795Z,23.00
2023-05-24T12:50:27.214Z,22.80
2023-05-24T12:52:55.029Z,22.70
2023-05-24T12:55:28.008Z,22.40
2023-05-24T12:57:57.568Z,22.20
2023-05-24T13:00:27.986Z,22.00
2023-05-24T13:02:59.695Z,21.80
2023-05-24T13:05:29.421Z,21.50
2023-05-24T13:07:58.005Z,21.30
2023-05-24T13:10:27.731Z,21.10
2023-05-24T13:12:56.528Z,20.90
2023-05-24T13:15:24.354Z,20.60
2023-05-24T13:17:51.837Z,20.50
2023-05-24T13:21:15.425Z,20.30
2023-05-24T13:23:46.944Z,20.20
2023-05-24T13:26:14.638Z,20.00
2023-05-24T13:28:53.365Z,20.00
2023-05-24T13:31:31.021Z,19.90
2023-05-24T13:33:58.449Z,19.90
2023-05-24T13:36:26.125Z,19.90
2023-05-24T13:39:02.587Z,19.90
2023-05-24T13:41:46.555Z,19.90
2023-05-24T13:44:24.668Z,19.90
2023-05-24T13:46:55.409Z,19.90
2023-05-24T13:49:25.756Z,20.00
2023-05-24T13:52:06.656Z,20.00
2023-05-24T13:54:37.240Z,20.00
2023-05-24T13:57:08.138Z,20.10
2023-05-24T13:59:36.255Z,20.20
2023-05-24T14:02:09.346Z,20.50
2023-05-24T14:04:37.259Z,20.80
2023-05-24T14:07:08.972Z,21.20
2023-05-24T14:09:40.087Z,21.70
2023-05-24T14:12:09.240Z,22.30
2023-05-24T14:14:59.276Z,22.80
2023-05-24T14:17:24.325Z,23.30
2023-05-24T14:19:51.964Z,23.60
2023-05-24T14:22:19.635Z,23.90
2023-05-24T14:24:47.419Z,24.10
2023-05-24T14:27:15.072Z,24.20
2023-05-24T14:29:42.358Z,24.40
2023-05-24T14:32:11.690Z,24.50
2023-05-24T14:34:41.664Z,24.60
2023-05-24T14:37:09.348Z,24.70
2023-05-24T14:39:36.867Z,24.90
2023-05-24T14:42:04.611Z,25.20
2023-05-24T14:44:31.975Z,25.40
2023-05-24T14:46:59.608Z,25.60
2023-05-24T14:49:27.993Z,25.70
2023-05-24T14:51:55.842Z,25.80
2023-05-24T14:54:23.403Z,25.70
2023-05-24T14:56:50.815Z,25.60
2023-05-24T14:59:19.400Z,25.40
2023-05-24T15:01:47.442Z,25.30
2023-05-24T15:04:15.228Z,25.20
2023-05-24T15:06:42.656Z,25.10
2023-05-24T15:09:10.191Z,25.00
2023-05-24T15:11:38.169Z,24.80
2023-05-24T15:14:07.041Z,24.50
2023-05-24T15:16:34.787Z,24.30
2023-05-24T15:19:02.493Z,24.00
2023-05-24T15:21:30.044Z,23.80
2023-05-24T15:24:00.354Z,23.60
2023-05-24T15:26:30.969Z,23.40
2023-05-24T15:30:15.439Z,23.20
2023-05-24T15:41:03.920Z,22.50
2023-05-24T15:43:32.086Z,22.30
2023-05-24T15:45:59.639Z,22.20
2023-05-24T15:48:29.582Z,22.10
2023-05-24T15:51:57.562Z,22.10
2023-05-24T15:53:45.096Z,22.10
2023-05-24T15:56:12.645Z,22.00
2023-05-24T15:58:40.106Z,22.10
2023-05-24T16:01:07.664Z,22.20
2023-05-24T16:03:38.156Z,22.40
2023-05-24T16:06:07.297Z,22.70
2023-05-24T16:08:34.734Z,23.00
2023-05-24T16:11:04.013Z,23.30
2023-05-24T16:13:33.608Z,23.50
2023-05-24T16:16:01.603Z,23.80
2023-05-24T16:18:34.136Z,24.00
2023-05-24T16:21:01.909Z,24.10
2023-05-24T16:23:30.010Z,24.10
2023-05-24T16:25:57.858Z,24.10
2023-05-24T16:28:25.470Z,24.00
2023-05-24T16:30:57.713Z,23.80
2023-05-24T16:33:25.604Z,23.50
2023-05-24T16:35:56.536Z,23.30
2023-05-24T16:38:28.868Z,23.00
2023-05-24T16:41:37.799Z,22.80
2023-05-24T16:44:09.798Z,22.50
2023-05-24T16:46:42.508Z,22.20
2023-05-24T16:49:10.169Z,22.10
2023-05-24T16:51:38.989Z,22.00
2023-05-24T16:54:25.605Z,22.10
2023-05-24T16:57:12.905Z,22.30
2023-05-24T16:59:42.450Z,22.50
2023-05-24T17:02:09.996Z,22.70
2023-05-24T17:04:37.389Z,22.80
2023-05-24T17:07:06.189Z,22.90
2023-05-24T17:09:36.791Z,23.00
2023-05-24T17:12:04.436Z,22.90
2023-05-24T17:14:33.140Z,22.90
2023-05-24T17:17:00.730Z,22.80
2023-05-24T17:19:31.217Z,22.60
2023-05-24T17:21:59.837Z,22.50
2023-05-24T17:24:27.983Z,22.30
2023-05-24T17:26:55.612Z,22.20
2023-05-24T17:29:24.696Z,22.00
2023-05-24T17:31:52.979Z,21.90
2023-05-24T17:34:21.372Z,21.80
2023-05-24T17:36:50.134Z,21.60
2023-05-24T17:39:23.552Z,21.50
2023-05-24T17:41:51.629Z,21.40
2023-05-24T17:44:19.376Z,21.30
2023-05-24T17:46:47.982Z,21.20
2023-05-24T17:49:17.505Z,21.10
2023-05-24T17:51:45.188Z,20.90
2023-05-24T17:54:19.584Z,20.70
2023-05-24T17:56:52.548Z,20.60
2023-05-24T17:59:20.150Z,20.40
2023-05-24T18:01:49.942Z,20.30
2023-05-24T18:04:20.420Z,20.20
2023-05-24T18:06:47.927Z,20.10
2023-05-24T18:09:16.948Z,20.00
2023-05-24T18:11:46.123Z,19.90
2023-05-24T18:14:14.967Z,19.80
2023-05-24T18:16:43.105Z,19.70
2023-05-24T18:19:10.780Z,19.70
2023-05-24T18:21:41.186Z,19.60
2023-05-24T18:24:10.594Z,19.60
2023-05-24T18:26:38.390Z,19.50
2023-05-24T18:29:05.760Z,19.50
2023-05-24T18:31:33.091Z,19.40
2023-05-24T18:34:01.851Z,19.40
2023-05-24T18:36:30.775Z,19.40
2023-05-24T18:39:00.713Z,19.40
2023-05-24T18:41:28.056Z,19.40
2023-05-24T18:44:04.069Z,19.40
2023-05-24T18:46:33.916Z,19.30
2023-05-24T18:49:03.078Z,19.30
2023-05-24T18:51:30.414Z,19.30
2023-05-24T18:53:59.234Z,19.30
2023-05-24T18:56:27.288Z,19.30
2023-05-24T18:58:59.280Z,19.30
2023-05-24T19:01:29.877Z,19.20
2023-05-24T19:03:58.894Z,19.20
2023-05-24T19:06:28.833Z,19.20
2023-05-24T19:09:00.512Z,19.10
2023-05-24T19:11:28.770Z,19.10
2023-05-24T19:13:56.918Z,19.00
2023-05-24T19:16:27.087Z,19.00
2023-05-24T19:18:54.725Z,18.90
2023-05-24T19:21:24.643Z,18.90
2023-05-24T19:23:53.780Z,18.80
2023-05-24T19:26:21.365Z,18.80
2023-05-24T19:28:50.908Z,18.70
2023-05-24T19:31:25.527Z,18.70
2023-05-24T19:34:00.302Z,18.60
2023-05-24T19:36:31.591Z,18.50
2023-05-24T19:39:02.602Z,18.50
2023-05-24T19:41:31.216Z,18.40
2023-05-24T19:43:59.194Z,18.30
2023-05-24T19:46:30.030Z,18.30
2023-05-24T19:48:57.865Z,18.20
2023-05-24T19:51:27.423Z,18.10
2023-05-24T19:53:55.364Z,18.00
2023-05-24T19:56:24.265Z,18.00
2023-05-24T19:58:53.136Z,17.90
2023-05-24T20:01:23.696Z,17.80
2023-05-24T20:03:52.926Z,17.80
2023-05-24T20:06:20.596Z,17.70
2023-05-24T20:08:48.535Z,17.70
2023-05-24T20:11:17.907Z,17.60
2023-05-24T20:13:47.065Z,17.50
2023-05-24T20:16:14.973Z,17.40
2023-05-24T20:18:43.375Z,17.40
2023-05-24T20:21:14.142Z,17.30
2023-05-24T20:23:44.740Z,17.30
2023-05-24T20:26:14.068Z,17.20
2023-05-24T20:28:42.735Z,17.10
2023-05-24T20:31:10.410Z,17.00
2023-05-24T20:33:38.979Z,17.00
2023-05-24T20:36:07.743Z,16.90
2023-05-24T20:38:35.969Z,16.90
2023-05-24T20:41:04.480Z,16.80
2023-05-24T20:43:32.052Z,16.70
2023-05-24T20:45:59.726Z,16.70
2023-05-24T20:48:32.321Z,16.60
2023-05-24T20:50:59.942Z,16.60
2023-05-24T20:53:28.044Z,16.50
2023-05-24T20:55:57.371Z,16.50
2023-05-24T20:58:24.987Z,16.40
2023-05-24T21:00:52.680Z,16.40
2023-05-24T21:03:20.755Z,16.40
2023-05-24T21:05:50.673Z,16.30
2023-05-24T21:08:18.432Z,16.20
2023-05-24T21:10:46.823Z,16.20
2023-05-24T21:13:14.540Z,16.20
2023-05-24T21:15:44.646Z,16.10
2023-05-24T21:18:12.930Z,16.10
2023-05-24T21:20:40.756Z,16.00
2023-05-24T21:23:08.571Z,16.00
2023-05-24T21:25:36.494Z,15.90
2023-05-24T21:28:03.952Z,15.90
2023-05-24T21:30:31.721Z,15.80
2023-05-24T21:36:59.419Z,15.70
2023-05-24T21:47:47.477Z,15.60
2023-05-24T21:50:17.832Z,15.60
2023-05-24T21:52:45.027Z,15.50
2023-05-24T21:55:12.406Z,15.50
2023-05-24T21:57:39.920Z,15.40
2023-05-24T22:00:09.005Z,15.40
2023-05-24T22:02:37.275Z,15.30
2023-05-24T22:05:05.621Z,15.30
2023-05-24T22:07:33.567Z,15.30
2023-05-24T22:10:01.145Z,15.30
2023-05-24T22:12:28.725Z,15.20
2023-05-24T22:14:56.196Z,15.20
2023-05-24T22:17:25.958Z,15.20
2023-05-24T22:19:53.738Z,15.20
2023-05-24T22:22:23.085Z,15.20
2023-05-24T22:24:51.088Z,15.10
2023-05-24T22:27:18.418Z,15.10
2023-05-24T22:29:45.599Z,15.10
2023-05-24T22:32:13.754Z,15.10
2023-05-24T22:34:41.105Z,15.00
2023-05-24T22:37:08.424Z,15.00
2023-05-24T22:39:35.651Z,15.00
2023-05-24T22:42:03.175Z,15.00
2023-05-24T22:48:40.920Z,14.90
2023-05-24T22:51:09.212Z,14.80
2023-05-24T22:53:39.154Z,14.80
2023-05-24T22:56:10.540Z,14.80
2023-05-24T22:58:38.446Z,14.80
2023-05-24T23:01:05.852Z,14.70
2023-05-24T23:03:33.089Z,14.70
2023-05-24T23:06:04.293Z,14.70
2023-05-24T23:08:32.544Z,14.60
2023-05-24T23:11:00.773Z,14.60
2023-05-24T23:13:28.137Z,14.60
2023-05-24T23:15:58.740Z,14.60
2023-05-24T23:18:26.673Z,14.50
2023-05-24T23:20:54.493Z,14.50
2023-05-24T23:23:24.956Z,14.50
2023-05-24T23:25:52.344Z,14.50
2023-05-24T23:28:20.295Z,14.50
2023-05-24T23:30:47.471Z,14.40
2023-05-24T23:33:14.600Z,14.40
2023-05-24T23:35:42.033Z,14.30
2023-05-24T23:38:09.408Z,14.30
2023-05-24T23:40:36.786Z,14.30
2023-05-24T23:43:04.484Z,14.30
2023-05-24T23:45:32.277Z,14.20
2023-05-24T23:47:59.853Z,14.20
2023-05-24T23:50:27.566Z,14.20
2023-05-24T23:52:55.354Z,14.10
2023-05-24T23:55:23.713Z,14.10
2023-05-24T23:57:52.210Z,14.00
